createdAt,value
2023-05-04T00:01:40.958Z,21.27
2023-05-04T00:04:26.307Z,21.26
2023-05-04T00:07:11.737Z,21.25
2023-05-04T00:09:57.323Z,21.24
2023-05-04T00:12:42.695Z,21.24
2023-05-04T00:15:29.183Z,21.22
2023-05-04T00:18:14.608Z,21.21
2023-05-04T00:20:59.876Z,21.20
2023-05-04T00:23:45.172Z,21.18
2023-05-04T00:26:30.324Z,21.18
2023-05-04T00:29:16.041Z,21.17
2023-05-04T00:32:01.620Z,21.17
2023-05-04T00:34:48.230Z,21.16
2023-05-04T00:37:33.526Z,21.15
2023-05-04T00:40:18.825Z,21.15
2023-05-04T00:43:04.241Z,21.13
2023-05-04T00:45:50.198Z,21.12
2023-05-04T00:48:35.651Z,21.13
2023-05-04T00:51:24.772Z,21.11
2023-05-04T00:54:10.178Z,21.12
2023-05-04T00:56:56.471Z,21.10
2023-05-04T00:59:41.913Z,21.10
2023-05-04T01:02:27.114Z,21.08
2023-05-04T01:05:12.629Z,21.07
2023-05-04T01:08:13.490Z,21.08
2023-05-04T01:11:16.069Z,21.07
2023-05-04T01:14:02.969Z,21.06
2023-05-04T01:16:52.845Z,21.05
2023-05-04T01:19:38.266Z,21.04
2023-05-04T01:22:23.841Z,21.02
2023-05-04T01:25:09.942Z,21.02
2023-05-04T01:28:10.428Z,21.02
2023-05-04T01:31:00.532Z,21.01
2023-05-04T01:33:46.261Z,21.00
2023-05-04T01:36:32.902Z,21.00
2023-05-04T01:39:18.513Z,20.99
2023-05-04T01:42:04.301Z,20.99
2023-05-04T01:44:49.809Z,20.99
2023-05-04T01:47:36.114Z,20.97
2023-05-04T01:50:21.199Z,21.00
2023-05-04T01:53:06.529Z,21.00
2023-05-04T01:55:51.778Z,20.99
2023-05-04T01:58:37.057Z,21.00
2023-05-04T02:01:22.312Z,21.02
2023-05-04T02:04:08.130Z,21.01
2023-05-04T02:06:54.021Z,21.00
2023-05-04T02:09:39.462Z,21.01
2023-05-04T02:12:24.758Z,21.00
2023-05-04T02:15:10.478Z,21.01
2023-05-04T02:17:56.053Z,21.01
2023-05-04T02:20:41.242Z,21.01
2023-05-04T02:23:26.345Z,21.03
2023-05-04T02:26:11.672Z,21.03
2023-05-04T02:28:56.938Z,21.02
2023-05-04T02:31:42.251Z,21.03
2023-05-04T02:34:27.569Z,21.03
2023-05-04T02:37:13.029Z,21.04
2023-05-04T02:39:58.392Z,21.03
2023-05-04T02:42:43.657Z,21.04
2023-05-04T02:45:29.534Z,21.04
2023-05-04T02:48:14.652Z,21.04
2023-05-04T02:51:00.107Z,21.05
2023-05-04T02:53:45.477Z,21.06
2023-05-04T02:56:30.710Z,21.04
2023-05-04T02:59:16.240Z,21.05
2023-05-04T03:02:01.351Z,21.04
2023-05-04T03:04:46.644Z,21.03
2023-05-04T03:07:32.024Z,21.04
2023-05-04T03:10:17.581Z,21.06
2023-05-04T03:13:06.193Z,21.07
2023-05-04T03:15:51.807Z,21.06
2023-05-04T03:18:36.890Z,21.03
2023-05-04T03:21:22.839Z,21.04
2023-05-04T03:24:08.207Z,21.03
2023-05-04T03:26:53.664Z,21.04
2023-05-04T03:29:38.912Z,21.05
2023-05-04T03:32:24.919Z,21.04
2023-05-04T03:35:10.701Z,21.06
2023-05-04T03:37:56.170Z,21.05
2023-05-04T03:40:41.950Z,21.06
2023-05-04T03:43:27.312Z,21.04
2023-05-04T03:46:15.194Z,21.07
2023-05-04T03:49:00.682Z,21.07
2023-05-04T03:51:46.453Z,21.08
2023-05-04T03:54:31.741Z,21.08
2023-05-04T03:57:17.034Z,21.09
2023-05-04T04:00:03.818Z,21.10
2023-05-04T04:03:01.540Z,21.13
2023-05-04T04:05:47.974Z,21.16
2023-05-04T04:08:33.584Z,21.18
2023-05-04T04:11:19.089Z,21.22
2023-05-04T04:14:04.532Z,21.24
2023-05-04T04:16:49.697Z,21.26
2023-05-04T04:19:37.020Z,21.27
2023-05-04T04:22:22.521Z,21.29
2023-05-04T04:25:09.215Z,21.32
2023-05-04T04:27:55.556Z,21.34
2023-05-04T04:30:41.720Z,21.38
2023-05-04T04:33:27.107Z,21.42
2023-05-04T04:36:15.954Z,21.44
2023-05-04T04:39:06.174Z,21.47
2023-05-04T04:41:56.620Z,21.51
2023-05-04T04:44:42.426Z,21.59
2023-05-04T04:47:28.107Z,21.60
2023-05-04T04:50:13.414Z,21.64
2023-05-04T04:52:58.820Z,21.66
2023-05-04T04:55:44.299Z,21.71
2023-05-04T04:58:29.689Z,21.74
2023-05-04T05:01:18.874Z,21.76
2023-05-04T05:04:05.077Z,21.76
2023-05-04T05:06:51.631Z,21.75
2023-05-04T05:09:37.552Z,21.84
2023-05-04T05:12:23.271Z,21.89
2023-05-04T05:15:09.414Z,21.91
2023-05-04T05:17:54.702Z,21.91
2023-05-04T05:20:40.001Z,21.89
2023-05-04T05:23:25.272Z,21.87
2023-05-04T05:26:10.545Z,21.85
2023-05-04T05:28:56.090Z,21.82
2023-05-04T05:31:41.661Z,21.80
2023-05-04T05:34:27.420Z,21.79
2023-05-04T05:37:12.813Z,21.77
2023-05-04T05:39:58.424Z,21.74
2023-05-04T05:42:45.074Z,21.73
2023-05-04T05:45:30.391Z,21.72
2023-05-04T05:48:15.803Z,21.68
2023-05-04T05:51:01.034Z,21.67
2023-05-04T05:53:46.546Z,21.66
2023-05-04T05:56:32.483Z,21.64
2023-05-04T05:59:17.861Z,21.63
2023-05-04T06:02:03.253Z,21.63
2023-05-04T06:04:48.560Z,21.62
2023-05-04T06:07:33.837Z,21.61
2023-05-04T06:10:19.041Z,21.58
2023-05-04T06:13:04.492Z,21.58
2023-05-04T06:15:54.026Z,21.56
2023-05-04T06:18:39.318Z,21.55
2023-05-04T06:21:24.623Z,21.53
2023-05-04T06:24:09.993Z,21.52
2023-05-04T06:26:55.419Z,21.52
2023-05-04T06:29:41.490Z,21.51
2023-05-04T06:32:26.677Z,21.50
2023-05-04T06:35:12.054Z,21.50
2023-05-04T06:37:57.317Z,21.50
2023-05-04T06:40:42.530Z,21.50
2023-05-04T06:43:27.805Z,21.51
2023-05-04T06:46:13.061Z,21.51
2023-05-04T06:48:58.424Z,21.50
2023-05-04T06:51:43.769Z,21.51
2023-05-04T06:54:29.089Z,21.50
2023-05-04T06:57:14.989Z,21.50
2023-05-04T07:00:00.377Z,21.51
2023-05-04T07:02:47.222Z,21.52
2023-05-04T07:05:37.068Z,21.52
2023-05-04T07:08:22.349Z,21.53
2023-05-04T07:11:09.538Z,21.54
2023-05-04T07:13:55.324Z,21.56
2023-05-04T07:16:41.031Z,21.56
2023-05-04T07:19:27.638Z,21.57
2023-05-04T07:22:13.148Z,21.57
2023-05-04T07:24:58.922Z,21.59
2023-05-04T07:27:45.170Z,21.58
2023-05-04T07:30:30.490Z,21.59
2023-05-04T07:33:15.913Z,21.61
2023-05-04T07:36:01.447Z,21.62
2023-05-04T07:38:47.753Z,21.62
2023-05-04T07:41:33.397Z,21.62
2023-05-04T07:44:18.560Z,21.63
2023-05-04T07:47:04.627Z,21.64
2023-05-04T07:49:50.617Z,21.63
2023-05-04T07:52:35.854Z,21.65
2023-05-04T07:55:25.332Z,21.65
2023-05-04T07:58:12.028Z,21.66
2023-05-04T08:01:00.643Z,21.67
2023-05-04T08:03:46.462Z,21.68
2023-05-04T08:06:33.859Z,21.68
2023-05-04T08:09:21.970Z,21.69
2023-05-04T08:12:07.733Z,21.70
2023-05-04T08:14:52.949Z,21.69
2023-05-04T08:17:40.555Z,21.71
2023-05-04T08:20:26.174Z,21.72
2023-05-04T08:23:11.941Z,21.71
2023-05-04T08:25:57.369Z,21.72
2023-05-04T08:28:42.833Z,21.73
2023-05-04T08:31:28.435Z,21.73
2023-05-04T08:34:13.658Z,21.75
2023-05-04T08:36:58.995Z,21.74
2023-05-04T08:39:44.284Z,21.75
2023-05-04T08:42:31.524Z,21.75
2023-05-04T08:45:17.716Z,21.75
2023-05-04T08:48:03.976Z,21.76
2023-05-04T08:50:49.773Z,21.75
2023-05-04T08:53:37.227Z,21.78
2023-05-04T08:56:23.216Z,21.78
2023-05-04T08:59:17.991Z,21.77
2023-05-04T09:02:04.204Z,21.77
2023-05-04T09:04:51.165Z,21.78
2023-05-04T09:07:36.770Z,21.78
2023-05-04T09:10:22.734Z,21.78
2023-05-04T09:13:08.465Z,21.78
2023-05-04T09:15:55.581Z,21.78
2023-05-04T09:18:43.966Z,21.77
2023-05-04T09:21:30.883Z,21.76
2023-05-04T09:24:29.606Z,21.77
2023-05-04T09:27:18.625Z,21.77
2023-05-04T09:30:05.447Z,21.76
2023-05-04T09:32:51.083Z,21.76
2023-05-04T09:35:41.452Z,21.76
2023-05-04T09:38:28.121Z,21.75
2023-05-04T09:41:13.780Z,21.76
2023-05-04T09:43:59.066Z,21.75
2023-05-04T09:46:55.598Z,21.74
2023-05-04T09:49:40.909Z,21.75
2023-05-04T09:52:30.834Z,21.73
2023-05-04T09:55:18.815Z,21.74
2023-05-04T09:58:05.564Z,21.73
2023-05-04T10:00:54.473Z,21.73
2023-05-04T10:03:39.996Z,21.72
2023-05-04T10:06:28.429Z,21.72
2023-05-04T10:09:13.821Z,21.72
2023-05-04T10:12:01.059Z,21.73
2023-05-04T10:14:47.377Z,21.72
2023-05-04T10:17:50.858Z,21.73
2023-05-04T10:20:55.066Z,21.73
2023-05-04T10:24:19.303Z,21.73
2023-05-04T10:27:07.376Z,21.71
2023-05-04T10:29:53.713Z,21.72
2023-05-04T10:32:40.130Z,21.73
2023-05-04T10:35:26.963Z,21.73
2023-05-04T10:38:14.673Z,21.74
2023-05-04T10:41:00.015Z,21.75
2023-05-04T10:43:50.718Z,21.76
2023-05-04T10:46:36.595Z,21.76
2023-05-04T10:49:22.959Z,21.77
2023-05-04T10:52:16.069Z,21.76
2023-05-04T10:55:04.075Z,21.78
2023-05-04T10:57:51.792Z,21.79
2023-05-04T11:00:39.071Z,21.79
2023-05-04T11:03:25.151Z,21.80
2023-05-04T11:06:24.096Z,21.80
2023-05-04T11:09:12.753Z,21.82
2023-05-04T11:11:58.446Z,21.83
2023-05-04T11:14:43.865Z,21.84
2023-05-04T11:17:29.511Z,21.85
2023-05-04T11:20:25.487Z,21.85
2023-05-04T11:23:16.384Z,21.89
2023-05-04T11:26:08.310Z,21.90
2023-05-04T11:28:54.915Z,21.94
2023-05-04T11:31:40.204Z,21.95
2023-05-04T11:34:26.130Z,21.98
2023-05-04T11:37:13.160Z,22.03
2023-05-04T11:39:59.763Z,22.06
2023-05-04T11:42:46.235Z,22.11
2023-05-04T11:45:33.746Z,22.13
2023-05-04T11:48:19.285Z,22.17
2023-05-04T11:51:06.499Z,22.20
2023-05-04T11:53:51.914Z,22.25
2023-05-04T11:56:41.996Z,22.30
2023-05-04T11:59:27.346Z,22.33
2023-05-04T12:02:17.181Z,22.36
2023-05-04T12:05:04.084Z,22.40
2023-05-04T12:07:50.500Z,22.43
2023-05-04T12:10:36.322Z,22.47
2023-05-04T12:13:22.062Z,22.49
2023-05-04T12:16:16.883Z,22.52
2023-05-04T12:19:08.451Z,22.52
2023-05-04T12:21:55.039Z,22.55
2023-05-04T12:24:40.733Z,22.59
2023-05-04T12:27:27.668Z,22.62
2023-05-04T12:30:14.186Z,22.65
2023-05-04T12:32:59.754Z,22.67
2023-05-04T12:35:44.920Z,22.71
2023-05-04T12:38:30.457Z,22.73
2023-05-04T12:41:16.436Z,22.76
2023-05-04T12:44:03.362Z,22.79
2023-05-04T12:46:49.105Z,22.81
2023-05-04T12:49:34.453Z,22.84
2023-05-04T12:52:19.795Z,22.86
2023-05-04T12:55:05.987Z,22.90
2023-05-04T12:57:51.486Z,22.92
2023-05-04T13:00:38.636Z,22.95
2023-05-04T13:03:24.174Z,22.95
2023-05-04T13:06:09.760Z,22.97
2023-05-04T13:08:55.147Z,23.00
2023-05-04T13:11:40.957Z,23.01
2023-05-04T13:14:26.732Z,23.03
2023-05-04T13:17:12.138Z,23.03
2023-05-04T13:19:57.461Z,23.06
2023-05-04T13:22:50.782Z,23.05
2023-05-04T13:25:36.233Z,23.07
2023-05-04T13:28:21.282Z,23.08
2023-05-04T13:31:06.624Z,23.05
2023-05-04T13:33:52.023Z,23.06
2023-05-04T13:36:37.313Z,23.06
2023-05-04T13:39:22.857Z,23.04
2023-05-04T13:42:08.478Z,23.02
2023-05-04T13:44:53.747Z,23.03
2023-05-04T13:47:40.456Z,23.03
2023-05-04T13:50:25.970Z,23.05
2023-05-04T13:53:11.333Z,23.01
2023-05-04T13:55:56.681Z,23.02
2023-05-04T13:58:42.048Z,22.97
2023-05-04T14:01:27.390Z,22.99
2023-05-04T14:04:12.625Z,22.98
2023-05-04T14:06:57.888Z,22.98
2023-05-04T14:09:43.158Z,22.99
2023-05-04T14:12:28.865Z,22.98
2023-05-04T14:15:16.468Z,22.97
2023-05-04T14:18:01.893Z,22.98
2023-05-04T14:20:48.569Z,22.96
2023-05-04T14:23:34.015Z,22.97
2023-05-04T14:26:19.174Z,22.98
2023-05-04T14:29:04.419Z,22.98
2023-05-04T14:31:49.663Z,22.97
2023-05-04T14:34:36.090Z,22.95
2023-05-04T14:37:21.427Z,22.93
2023-05-04T14:40:08.976Z,22.90
2023-05-04T14:42:54.876Z,22.89
2023-05-04T14:45:40.124Z,22.85
2023-05-04T14:48:27.579Z,22.80
2023-05-04T14:51:13.783Z,22.79
2023-05-04T14:53:59.689Z,22.77
2023-05-04T14:56:44.957Z,22.73
2023-05-04T14:59:30.093Z,22.70
2023-05-04T15:02:16.117Z,22.68
2023-05-04T15:05:02.847Z,22.67
2023-05-04T15:07:48.066Z,22.63
2023-05-04T15:10:33.601Z,22.59
2023-05-04T15:13:20.056Z,22.56
2023-05-04T15:16:07.655Z,22.55
2023-05-04T15:18:53.660Z,22.52
2023-05-04T15:21:39.170Z,22.51
2023-05-04T15:24:24.442Z,22.52
2023-05-04T15:27:09.745Z,22.50
2023-05-04T15:29:55.693Z,22.50
2023-05-04T15:32:41.254Z,22.49
2023-05-04T15:35:26.441Z,22.49
2023-05-04T15:38:11.823Z,22.47
2023-05-04T15:40:56.966Z,22.48
2023-05-04T15:43:42.391Z,22.46
2023-05-04T15:46:28.138Z,22.44
2023-05-04T15:49:13.422Z,22.44
2023-05-04T15:51:58.544Z,22.41
2023-05-04T15:54:43.862Z,22.40
2023-05-04T15:57:28.945Z,22.37
2023-05-04T16:00:15.985Z,22.35
2023-05-04T16:03:01.989Z,22.33
2023-05-04T16:05:47.156Z,22.32
2023-05-04T16:08:41.984Z,22.34
2023-05-04T16:11:30.513Z,22.35
2023-05-04T16:14:18.336Z,22.36
2023-05-04T16:17:03.605Z,22.38
2023-05-04T16:19:49.046Z,22.44
2023-05-04T16:22:35.140Z,22.44
2023-05-04T16:25:20.927Z,22.46
2023-05-04T16:28:06.731Z,22.50
2023-05-04T16:30:52.344Z,22.55
2023-05-04T16:33:37.644Z,22.52
2023-05-04T16:36:23.543Z,22.52
2023-05-04T16:39:09.949Z,22.51
2023-05-04T16:41:56.322Z,22.53
2023-05-04T16:44:41.965Z,22.58
2023-05-04T16:47:27.284Z,22.60
2023-05-04T16:50:14.257Z,22.63
2023-05-04T16:52:59.892Z,22.67
2023-05-04T16:55:45.165Z,22.68
2023-05-04T16:58:30.724Z,22.72
2023-05-04T17:01:16.520Z,22.74
2023-05-04T17:04:02.467Z,22.76
2023-05-04T17:06:47.911Z,22.78
2023-05-04T17:09:33.388Z,22.79
2023-05-04T17:12:19.227Z,22.77
2023-05-04T17:15:04.820Z,22.82
2023-05-04T17:17:50.655Z,22.80
2023-05-04T17:20:35.886Z,22.82
2023-05-04T17:23:22.174Z,22.81
2023-05-04T17:26:08.275Z,22.80
2023-05-04T17:28:53.738Z,22.79
2023-05-04T17:31:39.127Z,22.79
2023-05-04T17:34:24.202Z,22.83
2023-05-04T17:37:11.556Z,22.85
2023-05-04T17:39:56.786Z,22.87
2023-05-04T17:42:42.005Z,22.89
2023-05-04T17:45:27.219Z,22.91
2023-05-04T17:48:12.434Z,22.93
2023-05-04T17:50:58.637Z,22.94
2023-05-04T17:53:44.186Z,22.94
2023-05-04T17:56:29.279Z,22.96
2023-05-04T17:59:16.041Z,22.98
2023-05-04T18:02:01.533Z,23.00
2023-05-04T18:04:46.595Z,23.00
2023-05-04T18:07:33.349Z,23.04
2023-05-04T18:10:18.607Z,23.07
2023-05-04T18:13:03.899Z,23.08
2023-05-04T18:15:49.211Z,23.08
2023-05-04T18:18:34.546Z,23.10
2023-05-04T18:21:19.970Z,23.08
2023-05-04T18:24:05.702Z,23.04
2023-05-04T18:26:53.446Z,23.00
2023-05-04T18:29:38.719Z,22.97
2023-05-04T18:32:24.503Z,22.97
2023-05-04T18:35:10.090Z,22.97
2023-05-04T18:37:55.537Z,22.96
2023-05-04T18:40:40.924Z,22.96
2023-05-04T18:43:26.436Z,22.93
2023-05-04T18:46:12.197Z,22.90
2023-05-04T18:48:57.435Z,22.89
2023-05-04T18:51:42.733Z,22.84
2023-05-04T18:54:34.662Z,22.84
2023-05-04T18:57:20.299Z,22.80
2023-05-04T19:00:09.363Z,22.77
2023-05-04T19:02:55.670Z,22.74
2023-05-04T19:05:41.076Z,22.72
2023-05-04T19:08:26.458Z,22.67
2023-05-04T19:11:12.078Z,22.63
2023-05-04T19:13:58.580Z,22.58
2023-05-04T19:16:43.855Z,22.52
2023-05-04T19:19:29.272Z,22.48
2023-05-04T19:22:15.738Z,22.42
2023-05-04T19:25:00.918Z,22.40
2023-05-04T19:27:47.967Z,22.36
2023-05-04T19:30:38.567Z,22.32
2023-05-04T19:33:30.366Z,22.30
2023-05-04T19:36:22.091Z,22.25
2023-05-04T19:39:09.845Z,22.21
2023-05-04T19:41:55.146Z,22.20
2023-05-04T19:44:40.962Z,22.16
2023-05-04T19:47:28.326Z,22.14
2023-05-04T19:50:15.785Z,22.12
2023-05-04T19:53:01.210Z,22.10
2023-05-04T19:55:47.425Z,22.07
2023-05-04T19:58:32.810Z,22.05
2023-05-04T20:01:18.559Z,22.02
2023-05-04T20:04:04.795Z,22.00
2023-05-04T20:06:50.797Z,21.98
2023-05-04T20:09:36.180Z,21.95
2023-05-04T20:12:21.642Z,21.94
2023-05-04T20:15:07.394Z,21.94
2023-05-04T20:17:53.015Z,21.95
2023-05-04T20:20:38.445Z,21.95
2023-05-04T20:23:23.699Z,21.97
2023-05-04T20:26:10.495Z,21.97
2023-05-04T20:28:55.711Z,21.98
2023-05-04T20:31:41.504Z,21.98
2023-05-04T20:34:28.029Z,21.98
2023-05-04T20:37:13.226Z,22.00
2023-05-04T20:39:58.680Z,21.99
2023-05-04T20:42:44.357Z,22.00
2023-05-04T20:45:30.938Z,22.05
2023-05-04T20:48:16.473Z,22.06
2023-05-04T20:51:13.221Z,22.06
2023-05-04T20:53:59.852Z,22.03
2023-05-04T20:56:45.137Z,22.01
2023-05-04T20:59:30.537Z,21.98
2023-05-04T21:02:15.815Z,21.94
2023-05-04T21:05:00.981Z,21.92
2023-05-04T21:07:46.615Z,21.89
2023-05-04T21:10:32.245Z,21.86
2023-05-04T21:13:17.551Z,21.84
2023-05-04T21:16:02.850Z,21.79
2023-05-04T21:18:48.493Z,21.77
2023-05-04T21:21:37.206Z,21.76
2023-05-04T21:24:23.154Z,21.74
2023-05-04T21:27:08.771Z,21.72
2023-05-04T21:29:54.159Z,21.70
2023-05-04T21:32:39.313Z,21.68
2023-05-04T21:35:24.653Z,21.66
2023-05-04T21:38:09.903Z,21.64
2023-05-04T21:40:55.237Z,21.63
2023-05-04T21:43:40.813Z,21.63
2023-05-04T21:46:25.952Z,21.59
2023-05-04T21:49:11.419Z,21.58
2023-05-04T21:51:56.674Z,21.56
2023-05-04T21:54:42.078Z,21.55
2023-05-04T21:57:27.661Z,21.55
2023-05-04T22:00:17.687Z,21.53
2023-05-04T22:03:03.338Z,21.52
2023-05-04T22:05:57.525Z,21.52
2023-05-04T22:08:43.034Z,21.50
2023-05-04T22:11:28.287Z,21.50
2023-05-04T22:14:13.834Z,21.50
2023-05-04T22:16:59.670Z,21.49
2023-05-04T22:19:45.178Z,21.48
2023-05-04T22:22:30.586Z,21.47
2023-05-04T22:25:16.071Z,21.44
2023-05-04T22:28:01.768Z,21.43
2023-05-04T22:30:47.670Z,21.43
2023-05-04T22:33:32.828Z,21.44
2023-05-04T22:36:18.215Z,21.42
2023-05-04T22:39:03.526Z,21.40
2023-05-04T22:41:48.938Z,21.40
2023-05-04T22:44:34.634Z,21.40
2023-05-04T22:47:20.225Z,21.36
2023-05-04T22:50:06.830Z,21.39
2023-05-04T22:52:52.667Z,21.36
2023-05-04T22:55:37.897Z,21.36
2023-05-04T22:58:23.496Z,21.36
2023-05-04T23:01:10.496Z,21.35
2023-05-04T23:03:56.055Z,21.35
2023-05-04T23:06:41.075Z,21.36
2023-05-04T23:09:26.376Z,21.35
2023-05-04T23:12:12.935Z,21.35
2023-05-04T23:14:58.404Z,21.34
2023-05-04T23:17:43.668Z,21.33
2023-05-04T23:20:28.934Z,21.31
2023-05-04T23:23:14.108Z,21.32
2023-05-04T23:25:59.393Z,21.32
2023-05-04T23:28:44.878Z,21.31
2023-05-04T23:31:30.159Z,21.31
2023-05-04T23:34:15.504Z,21.31
2023-05-04T23:37:01.085Z,21.30
2023-05-04T23:39:47.143Z,21.28
2023-05-04T23:42:32.651Z,21.25
2023-05-04T23:45:17.998Z,21.28
2023-05-04T23:48:03.418Z,21.26
2023-05-04T23:50:53.495Z,21.25
2023-05-04T23:53:39.216Z,21.25
2023-05-04T23:56:24.636Z,21.25
2023-05-04T23:59:10.576Z,21.26
